createdAt,value
2018-11-10T00:02:06.905Z,10.25
2018-11-10T00:04:34.384Z,10.32
2018-11-10T00:07:01.800Z,10.40
2018-11-10T00:09:29.227Z,10.43
2018-11-10T00:11:56.631Z,10.40
2018-11-10T00:14:24.086Z,10.49
2018-11-10T00:16:51.531Z,10.54
2018-11-10T00:19:18.965Z,10.57
2018-11-10T00:21:47.288Z,10.45
2018-11-10T00:24:14.754Z,10.35
2018-11-10T00:26:42.220Z,10.33
2018-11-10T00:29:09.717Z,10.26
2018-11-10T00:31:37.277Z,10.26
2018-11-10T00:34:04.703Z,10.28
2018-11-10T00:36:32.140Z,10.29
2018-11-10T00:38:59.619Z,10.16
2018-11-10T00:41:27.024Z,10.12
2018-11-10T00:43:54.433Z,9.95
2018-11-10T00:46:22.062Z,9.93
2018-11-10T00:48:49.547Z,9.95
2018-11-10T00:51:16.997Z,10.03
2018-11-10T00:53:44.445Z,10.13
2018-11-10T00:56:11.948Z,10.16
2018-11-10T00:58:39.422Z,10.28
2018-11-10T01:01:06.880Z,10.26
2018-11-10T01:03:34.402Z,10.34
2018-11-10T01:06:01.813Z,10.35
2018-11-10T01:08:29.323Z,10.40
2018-11-10T01:10:56.727Z,10.43
2018-11-10T01:13:24.186Z,10.38
2018-11-10T01:15:51.647Z,10.43
2018-11-10T01:18:19.084Z,10.39
2018-11-10T01:20:46.487Z,10.38
2018-11-10T01:23:13.935Z,10.41
2018-11-10T01:25:42.117Z,10.51
2018-11-10T01:28:09.631Z,10.53
2018-11-10T01:30:37.067Z,10.58
2018-11-10T01:33:04.482Z,10.57
2018-11-10T01:35:31.918Z,10.57
2018-11-10T01:37:59.350Z,10.59
2018-11-10T01:40:27.522Z,10.58
2018-11-10T01:42:55.034Z,10.60
2018-11-10T01:45:22.453Z,10.60
2018-11-10T01:47:50.871Z,10.64
2018-11-10T01:50:18.325Z,10.67
2018-11-10T01:52:45.773Z,10.75
2018-11-10T01:55:13.222Z,10.81
2018-11-10T01:57:40.822Z,10.84
2018-11-10T02:00:08.259Z,10.90
2018-11-10T02:02:35.678Z,10.94
2018-11-10T02:05:03.154Z,10.95
2018-11-10T02:07:30.659Z,10.90
2018-11-10T02:09:58.072Z,10.93
2018-11-10T02:12:25.489Z,10.91
2018-11-10T02:14:52.938Z,10.85
2018-11-10T02:17:20.361Z,10.83
2018-11-10T02:19:47.872Z,10.84
2018-11-10T02:22:15.355Z,10.80
2018-11-10T02:24:42.796Z,10.70
2018-11-10T02:27:10.273Z,10.47
2018-11-10T02:29:37.741Z,10.34
2018-11-10T02:32:05.356Z,10.39
2018-11-10T02:34:33.292Z,10.40
2018-11-10T02:37:00.750Z,10.35
2018-11-10T02:39:28.181Z,10.20
2018-11-10T02:41:55.680Z,10.19
2018-11-10T02:44:23.080Z,10.23
2018-11-10T02:46:50.519Z,10.20
2018-11-10T02:49:17.992Z,10.11
2018-11-10T02:51:45.436Z,10.13
2018-11-10T02:54:12.894Z,10.21
2018-11-10T02:56:40.375Z,10.27
2018-11-10T02:59:07.855Z,10.31
2018-11-10T03:01:35.308Z,10.25
2018-11-10T03:04:02.752Z,10.13
2018-11-10T03:06:30.218Z,10.11
2018-11-10T03:08:57.671Z,10.12
2018-11-10T03:11:25.094Z,10.06
2018-11-10T03:13:53.007Z,10.15
2018-11-10T03:16:20.545Z,10.27
2018-11-10T03:18:47.876Z,10.36
2018-11-10T03:21:15.330Z,10.45
2018-11-10T03:23:42.774Z,10.52
2018-11-10T03:26:10.244Z,10.56
2018-11-10T03:28:37.689Z,10.53
2018-11-10T03:31:05.197Z,10.55
2018-11-10T03:33:32.655Z,10.56
2018-11-10T03:36:00.087Z,10.49
2018-11-10T03:38:27.502Z,10.47
2018-11-10T03:40:54.975Z,10.15
2018-11-10T03:43:22.389Z,9.93
2018-11-10T03:45:49.827Z,9.99
2018-11-10T03:48:17.259Z,10.13
2018-11-10T03:50:44.670Z,10.19
2018-11-10T03:53:12.102Z,10.22
2018-11-10T03:55:39.551Z,10.26
2018-11-10T03:58:07.001Z,10.24
2018-11-10T04:00:34.421Z,10.03
2018-11-10T04:03:01.923Z,10.04
2018-11-10T04:05:29.381Z,9.98
2018-11-10T04:07:56.822Z,9.94
2018-11-10T04:10:24.334Z,9.88
2018-11-10T04:12:51.793Z,9.81
2018-11-10T04:15:19.163Z,9.78
2018-11-10T04:17:46.590Z,9.77
2018-11-10T04:20:14.037Z,9.91
2018-11-10T04:22:42.355Z,10.09
2018-11-10T04:25:09.787Z,10.16
2018-11-10T04:27:37.372Z,10.19
2018-11-10T04:30:04.755Z,10.19
2018-11-10T04:32:32.948Z,10.21
2018-11-10T04:35:00.418Z,10.09
2018-11-10T04:37:27.863Z,10.09
2018-11-10T04:39:55.297Z,10.14
2018-11-10T04:42:22.753Z,10.13
2018-11-10T04:44:50.215Z,10.11
2018-11-10T04:47:18.333Z,10.13
2018-11-10T04:49:45.863Z,9.98
2018-11-10T04:52:13.281Z,9.95
2018-11-10T04:54:40.750Z,9.99
2018-11-10T04:57:08.170Z,10.00
2018-11-10T04:59:35.625Z,10.12
2018-11-10T05:02:03.065Z,10.14
2018-11-10T05:04:30.533Z,10.05
2018-11-10T05:06:57.975Z,10.06
2018-11-10T05:09:25.377Z,10.09
2018-11-10T05:11:52.798Z,10.16
2018-11-10T05:14:20.227Z,10.16
2018-11-10T05:16:47.655Z,10.20
2018-11-10T05:19:15.146Z,10.20
2018-11-10T05:21:42.594Z,10.15
2018-11-10T05:24:10.109Z,10.16
2018-11-10T05:26:37.546Z,10.12
2018-11-10T05:29:05.019Z,10.09
2018-11-10T05:31:32.469Z,10.06
2018-11-10T05:33:59.907Z,10.08
2018-11-10T05:36:27.360Z,10.15
2018-11-10T05:38:55.193Z,10.15
2018-11-10T05:41:22.639Z,10.13
2018-11-10T05:43:50.053Z,10.12
2018-11-10T05:46:17.503Z,10.17
2018-11-10T05:48:44.914Z,10.25
2018-11-10T05:51:12.327Z,10.24
2018-11-10T05:53:39.825Z,10.20
2018-11-10T05:56:07.246Z,10.21
2018-11-10T05:58:34.751Z,10.08
2018-11-10T06:01:02.194Z,9.88
2018-11-10T06:03:29.646Z,9.74
2018-11-10T06:05:57.090Z,9.72
2018-11-10T06:08:24.735Z,9.73
2018-11-10T06:10:52.145Z,9.69
2018-11-10T06:13:19.550Z,9.60
2018-11-10T06:15:46.956Z,9.40
2018-11-10T06:18:14.371Z,9.28
2018-11-10T06:20:41.782Z,9.27
2018-11-10T06:23:09.251Z,9.26
2018-11-10T06:25:37.069Z,9.16
2018-11-10T06:28:04.516Z,9.10
2018-11-10T06:30:32.600Z,9.18
2018-11-10T06:32:59.993Z,9.38
2018-11-10T06:35:27.390Z,9.44
2018-11-10T06:37:54.862Z,9.45
2018-11-10T06:40:22.299Z,9.26
2018-11-10T06:42:49.742Z,9.15
2018-11-10T06:45:17.180Z,8.84
2018-11-10T06:47:44.880Z,8.69
2018-11-10T06:50:12.283Z,8.70
2018-11-10T06:52:39.712Z,8.78
2018-11-10T06:55:07.177Z,8.91
2018-11-10T06:57:35.089Z,9.11
2018-11-10T07:00:02.519Z,9.25
2018-11-10T07:02:30.038Z,9.18
2018-11-10T07:04:57.462Z,9.23
2018-11-10T07:07:25.906Z,9.28
2018-11-10T07:09:53.315Z,9.33
2018-11-10T07:12:20.743Z,9.43
2018-11-10T07:14:48.158Z,9.42
2018-11-10T07:17:15.602Z,9.48
2018-11-10T07:19:43.102Z,9.48
2018-11-10T07:22:10.577Z,9.55
2018-11-10T07:24:38.017Z,9.62
2018-11-10T07:27:05.449Z,9.74
2018-11-10T07:29:32.843Z,9.83
2018-11-10T07:32:00.373Z,9.91
2018-11-10T07:34:27.955Z,9.88
2018-11-10T07:36:55.365Z,9.80
2018-11-10T07:39:22.792Z,9.80
2018-11-10T07:41:50.934Z,9.90
2018-11-10T07:44:18.393Z,9.89
2018-11-10T07:46:45.953Z,9.87
2018-11-10T07:49:13.437Z,9.93
2018-11-10T07:51:40.823Z,10.06
2018-11-10T07:54:08.260Z,10.11
2018-11-10T07:56:35.712Z,10.15
2018-11-10T07:59:03.154Z,10.15
2018-11-10T08:01:30.682Z,10.23
2018-11-10T08:03:58.132Z,10.33
2018-11-10T08:06:25.575Z,10.43
2018-11-10T08:08:53.058Z,10.54
2018-11-10T08:11:20.515Z,10.58
2018-11-10T08:13:47.984Z,10.60
2018-11-10T08:16:15.412Z,10.69
2018-11-10T08:18:42.971Z,10.57
2018-11-10T08:21:10.680Z,10.54
2018-11-10T08:23:38.120Z,10.53
2018-11-10T08:26:05.561Z,10.57
2018-11-10T08:28:33.035Z,10.57
2018-11-10T08:31:00.522Z,10.57
2018-11-10T08:33:27.948Z,10.59
2018-11-10T08:35:55.438Z,10.56
2018-11-10T08:38:23.602Z,10.57
2018-11-10T08:40:51.034Z,10.58
2018-11-10T08:43:18.447Z,10.64
2018-11-10T08:45:46.006Z,10.64
2018-11-10T08:48:13.449Z,10.67
2018-11-10T08:50:40.979Z,10.78
2018-11-10T08:53:08.415Z,10.85
2018-11-10T08:55:35.891Z,11.12
2018-11-10T08:58:03.758Z,11.24
2018-11-10T09:00:31.197Z,11.19
2018-11-10T09:02:58.638Z,11.15
2018-11-10T09:05:26.061Z,11.23
2018-11-10T09:07:53.637Z,11.21
2018-11-10T09:10:21.930Z,11.19
2018-11-10T09:12:49.371Z,11.21
2018-11-10T09:15:16.977Z,11.12
2018-11-10T09:17:44.323Z,11.09
2018-11-10T09:20:11.736Z,11.10
2018-11-10T09:22:39.247Z,11.05
2018-11-10T09:25:06.804Z,11.11
2018-11-10T09:27:34.406Z,11.27
2018-11-10T09:30:02.069Z,11.39
2018-11-10T09:32:29.499Z,11.39
2018-11-10T09:34:57.185Z,11.52
2018-11-10T09:37:24.640Z,11.61
2018-11-10T09:39:52.077Z,11.64
2018-11-10T09:42:19.831Z,11.74
2018-11-10T09:44:47.239Z,11.72
2018-11-10T09:47:14.642Z,11.62
2018-11-10T09:49:42.165Z,11.47
2018-11-10T09:52:09.585Z,11.30
2018-11-10T09:54:37.009Z,11.38
2018-11-10T09:57:04.539Z,11.48
2018-11-10T09:59:32.080Z,11.35
2018-11-10T10:02:00.711Z,11.48
2018-11-10T10:04:28.554Z,11.57
2018-11-10T10:06:55.978Z,11.72
2018-11-10T10:09:23.431Z,11.80
2018-11-10T10:11:50.906Z,11.82
2018-11-10T10:14:18.306Z,11.84
2018-11-10T10:16:45.977Z,11.89
2018-11-10T10:19:13.410Z,11.97
2018-11-10T10:21:41.030Z,12.00
2018-11-10T10:24:08.483Z,12.02
2018-11-10T10:26:36.039Z,12.03
2018-11-10T10:29:03.576Z,11.97
2018-11-10T10:31:30.978Z,11.97
2018-11-10T10:33:58.506Z,12.13
2018-11-10T10:36:25.968Z,12.15
2018-11-10T10:38:53.510Z,12.26
2018-11-10T10:41:21.090Z,12.23
2018-11-10T10:43:48.523Z,12.15
2018-11-10T10:46:16.902Z,12.27
2018-11-10T10:48:44.445Z,12.42
2018-11-10T10:51:12.118Z,12.38
2018-11-10T10:53:39.576Z,12.41
2018-11-10T10:56:07.135Z,12.42
2018-11-10T10:58:34.540Z,12.49
2018-11-10T11:01:02.188Z,12.51
2018-11-10T11:03:29.701Z,12.64
2018-11-10T11:05:57.203Z,12.75
2018-11-10T11:08:24.618Z,13.07
2018-11-10T11:10:52.051Z,13.64
2018-11-10T11:13:19.500Z,13.96
2018-11-10T11:15:47.009Z,14.36
2018-11-10T11:18:14.340Z,13.77
2018-11-10T11:20:41.821Z,13.35
2018-11-10T11:23:09.336Z,13.10
2018-11-10T11:25:38.014Z,12.96
2018-11-10T11:28:05.464Z,12.88
2018-11-10T11:30:32.878Z,12.65
2018-11-10T11:33:01.206Z,12.50
2018-11-10T11:35:28.707Z,12.47
2018-11-10T11:37:56.162Z,12.34
2018-11-10T11:40:24.246Z,12.23
2018-11-10T11:42:51.805Z,12.36
2018-11-10T11:45:19.296Z,12.28
2018-11-10T11:47:46.732Z,12.11
2018-11-10T11:50:14.180Z,12.18
2018-11-10T11:52:41.701Z,12.20
2018-11-10T11:55:09.199Z,12.11
2018-11-10T11:57:36.701Z,12.16
2018-11-10T12:00:05.238Z,12.14
2018-11-10T12:02:32.672Z,12.04
2018-11-10T12:05:00.152Z,12.01
2018-11-10T12:07:27.738Z,12.01
2018-11-10T12:09:55.217Z,12.13
2018-11-10T12:12:22.789Z,12.14
2018-11-10T12:14:50.385Z,12.11
2018-11-10T12:17:17.839Z,12.13
2018-11-10T12:19:45.369Z,12.20
2018-11-10T12:22:12.891Z,12.13
2018-11-10T12:24:40.269Z,12.05
2018-11-10T12:27:08.581Z,12.03
2018-11-10T12:29:36.124Z,12.09
2018-11-10T12:32:03.594Z,12.07
2018-11-10T12:34:31.030Z,12.07
2018-11-10T12:36:58.464Z,12.05
2018-11-10T12:39:27.025Z,12.13
2018-11-10T12:41:54.481Z,12.12
2018-11-10T12:44:22.755Z,12.19
2018-11-10T12:46:50.347Z,12.15
2018-11-10T12:49:17.896Z,12.08
2018-11-10T12:51:45.215Z,12.02
2018-11-10T12:54:12.642Z,12.00
2018-11-10T12:56:40.110Z,12.07
2018-11-10T12:59:08.498Z,11.96
2018-11-10T13:01:36.066Z,11.88
2018-11-10T13:04:04.272Z,11.90
2018-11-10T13:06:31.729Z,11.99
2018-11-10T13:08:59.259Z,12.01
2018-11-10T13:11:26.896Z,12.11
2018-11-10T13:16:28.052Z,12.24
2018-11-10T13:18:55.464Z,12.30
2018-11-10T13:21:23.076Z,12.12
2018-11-10T13:23:50.649Z,12.14
2018-11-10T13:26:18.098Z,12.32
2018-11-10T13:28:45.627Z,12.38
2018-11-10T13:31:13.877Z,12.43
2018-11-10T13:33:41.549Z,12.45
2018-11-10T13:36:09.007Z,12.51
2018-11-10T13:38:36.475Z,12.58
2018-11-10T13:41:03.935Z,12.54
2018-11-10T13:43:31.959Z,12.29
2018-11-10T13:45:59.389Z,12.23
2018-11-10T13:48:26.876Z,11.98
2018-11-10T13:50:54.522Z,11.88
2018-11-10T13:53:21.792Z,11.78
2018-11-10T13:55:49.277Z,11.74
2018-11-10T13:58:17.099Z,11.69
2018-11-10T14:00:44.567Z,11.68
2018-11-10T14:03:12.152Z,11.76
2018-11-10T14:05:39.686Z,11.86
2018-11-10T14:08:07.072Z,12.06
2018-11-10T14:10:34.635Z,12.10
2018-11-10T14:13:02.094Z,12.09
2018-11-10T14:15:29.537Z,12.08
2018-11-10T14:17:57.008Z,12.11
2018-11-10T14:20:24.532Z,12.13
2018-11-10T14:22:51.949Z,12.18
2018-11-10T14:25:19.643Z,12.26
2018-11-10T14:27:47.144Z,12.40
2018-11-10T14:30:14.558Z,12.48
2018-11-10T14:32:42.054Z,12.60
2018-11-10T14:35:09.774Z,12.69
2018-11-10T14:37:37.178Z,12.70
2018-11-10T14:40:04.622Z,12.51
2018-11-10T14:42:33.196Z,12.45
2018-11-10T14:45:00.664Z,12.50
2018-11-10T14:47:28.161Z,12.51
2018-11-10T14:49:55.613Z,12.44
2018-11-10T14:52:23.140Z,12.49
2018-11-10T14:54:51.347Z,12.51
2018-11-10T14:57:18.867Z,12.52
2018-11-10T14:59:46.274Z,12.49
2018-11-10T15:02:13.741Z,12.38
2018-11-10T15:04:41.694Z,12.29
2018-11-10T15:07:09.215Z,12.32
2018-11-10T15:09:36.681Z,12.33
2018-11-10T15:12:04.254Z,12.44
2018-11-10T15:14:31.664Z,12.40
2018-11-10T15:16:59.071Z,12.48
2018-11-10T15:19:26.590Z,12.57
2018-11-10T15:21:54.044Z,12.58
2018-11-10T15:24:21.491Z,12.43
2018-11-10T15:26:48.930Z,12.36
2018-11-10T15:29:16.856Z,12.37
2018-11-10T15:31:44.299Z,12.28
2018-11-10T15:34:11.702Z,12.24
2018-11-10T15:36:39.244Z,12.24
2018-11-10T15:39:06.706Z,12.32
2018-11-10T15:41:34.929Z,12.31
2018-11-10T15:44:02.423Z,12.23
2018-11-10T15:46:29.863Z,12.22
2018-11-10T15:48:57.292Z,12.21
2018-11-10T15:51:25.319Z,12.23
2018-11-10T15:53:52.780Z,12.24
2018-11-10T15:56:20.244Z,12.19
2018-11-10T15:58:47.696Z,12.22
2018-11-10T16:01:15.142Z,12.14
2018-11-10T16:03:42.625Z,12.13
2018-11-10T16:06:10.084Z,12.08
2018-11-10T16:08:37.689Z,11.97
2018-11-10T16:11:05.086Z,12.00
2018-11-10T16:13:32.641Z,12.08
2018-11-10T16:16:00.114Z,12.02
2018-11-10T16:18:27.550Z,12.00
2018-11-10T16:20:55.011Z,12.01
2018-11-10T16:23:22.432Z,12.09
2018-11-10T16:25:49.923Z,12.10
2018-11-10T16:28:17.344Z,12.13
2018-11-10T16:30:45.012Z,12.17
2018-11-10T16:33:12.486Z,12.17
2018-11-10T16:35:39.986Z,12.13
2018-11-10T16:38:07.426Z,12.00
2018-11-10T16:40:34.858Z,11.93
2018-11-10T16:43:02.310Z,11.92
2018-11-10T16:45:29.809Z,11.98
2018-11-10T16:47:57.241Z,11.91
2018-11-10T16:50:24.675Z,11.92
2018-11-10T16:52:52.149Z,11.77
2018-11-10T16:55:19.658Z,11.66
2018-11-10T16:57:47.050Z,11.67
2018-11-10T17:00:14.938Z,11.70
2018-11-10T17:02:42.415Z,11.64
2018-11-10T17:05:09.859Z,11.56
2018-11-10T17:07:37.311Z,11.54
2018-11-10T17:10:04.737Z,11.50
2018-11-10T17:12:32.186Z,11.48
2018-11-10T17:14:59.652Z,11.60
2018-11-10T17:17:27.132Z,11.68
2018-11-10T17:19:54.600Z,11.72
2018-11-10T17:22:22.031Z,11.77
2018-11-10T17:24:49.453Z,11.76
2018-11-10T17:27:16.964Z,11.69
2018-11-10T17:29:44.487Z,11.66
2018-11-10T17:32:11.936Z,11.69
2018-11-10T17:34:39.368Z,11.71
2018-11-10T17:37:06.873Z,11.74
2018-11-10T17:39:34.366Z,11.79
2018-11-10T17:42:01.935Z,11.82
2018-11-10T17:44:29.361Z,11.79
2018-11-10T17:46:56.828Z,11.80
2018-11-10T17:49:24.329Z,11.86
2018-11-10T17:51:51.844Z,11.89
2018-11-10T17:54:19.335Z,11.81
2018-11-10T17:56:46.771Z,11.81
2018-11-10T17:59:14.222Z,11.77
2018-11-10T18:01:41.692Z,11.76
2018-11-10T18:04:09.137Z,11.74
2018-11-10T18:06:36.598Z,11.79
2018-11-10T18:09:04.030Z,11.84
2018-11-10T18:11:31.493Z,11.92
2018-11-10T18:13:59.016Z,11.93
2018-11-10T18:16:26.462Z,11.92
2018-11-10T18:18:53.982Z,11.85
2018-11-10T18:21:21.399Z,11.87
2018-11-10T18:23:48.881Z,11.93
2018-11-10T18:26:16.303Z,12.00
2018-11-10T18:28:43.736Z,12.01
2018-11-10T18:31:11.201Z,11.92
2018-11-10T18:33:39.026Z,11.87
2018-11-10T18:36:06.482Z,11.76
2018-11-10T18:38:33.915Z,11.81
2018-11-10T18:41:01.341Z,11.87
2018-11-10T18:43:28.745Z,11.88
2018-11-10T18:45:56.191Z,11.94
2018-11-10T18:48:23.601Z,12.02
2018-11-10T18:50:51.064Z,11.94
2018-11-10T18:53:18.474Z,12.00
2018-11-10T18:55:46.043Z,12.05
2018-11-10T18:58:13.596Z,11.95
2018-11-10T19:00:40.967Z,11.98
2018-11-10T19:03:08.408Z,12.03
2018-11-10T19:05:35.829Z,12.07
2018-11-10T19:08:03.272Z,12.07
2018-11-10T19:10:30.710Z,12.13
2018-11-10T19:12:58.176Z,12.16
2018-11-10T19:15:25.592Z,12.12
2018-11-10T19:17:53.966Z,12.04
2018-11-10T19:20:21.442Z,12.05
2018-11-10T19:22:49.011Z,12.02
2018-11-10T19:25:16.417Z,12.03
2018-11-10T19:27:43.979Z,12.07
2018-11-10T19:30:11.647Z,12.02
2018-11-10T19:32:39.148Z,11.98
2018-11-10T19:35:06.599Z,11.97
2018-11-10T19:37:34.142Z,11.94
2018-11-10T19:40:01.661Z,11.94
2018-11-10T19:42:29.064Z,11.94
2018-11-10T19:44:56.486Z,11.95
2018-11-10T19:47:23.920Z,12.01
2018-11-10T19:49:51.428Z,12.02
2018-11-10T19:52:18.866Z,12.08
2018-11-10T19:54:46.396Z,12.07
2018-11-10T19:57:13.852Z,12.10
2018-11-10T19:59:41.311Z,12.16
2018-11-10T20:02:08.804Z,12.14
2018-11-10T20:04:36.224Z,12.16
2018-11-10T20:07:03.650Z,12.18
2018-11-10T20:09:31.107Z,12.16
2018-11-10T20:11:58.538Z,12.16
2018-11-10T20:14:26.112Z,12.16
2018-11-10T20:16:53.565Z,12.20
2018-11-10T20:19:21.039Z,12.21
2018-11-10T20:21:48.449Z,12.23
2018-11-10T20:24:16.798Z,12.25
2018-11-10T20:26:44.205Z,12.20
2018-11-10T20:29:11.670Z,12.19
2018-11-10T20:31:39.103Z,12.15
2018-11-10T20:34:06.658Z,12.15
2018-11-10T20:36:34.070Z,12.17
2018-11-10T20:39:01.629Z,12.16
2018-11-10T20:41:28.973Z,12.21
2018-11-10T20:43:56.442Z,12.18
2018-11-10T20:46:23.886Z,12.09
2018-11-10T20:48:51.316Z,12.07
2018-11-10T20:51:18.896Z,12.12
2018-11-10T20:53:46.320Z,12.10
2018-11-10T20:56:14.162Z,12.09
2018-11-10T20:58:41.634Z,12.07
2018-11-10T21:01:09.060Z,12.02
2018-11-10T21:03:36.576Z,12.04
2018-11-10T21:06:04.167Z,12.04
2018-11-10T21:08:31.791Z,12.01
2018-11-10T21:10:59.253Z,12.01
2018-11-10T21:13:26.723Z,11.94
2018-11-10T21:15:54.130Z,11.99
2018-11-10T21:18:21.568Z,12.00
2018-11-10T21:20:49.135Z,11.97
2018-11-10T21:23:16.567Z,11.93
2018-11-10T21:25:44.005Z,11.87
2018-11-10T21:28:11.549Z,11.79
2018-11-10T21:30:39.085Z,11.75
2018-11-10T21:33:06.727Z,11.83
2018-11-10T21:35:34.896Z,11.86
2018-11-10T21:38:02.533Z,11.91
2018-11-10T21:40:29.950Z,11.90
2018-11-10T21:42:57.408Z,11.92
2018-11-10T21:45:24.874Z,11.94
2018-11-10T21:47:52.323Z,11.98
2018-11-10T21:50:19.796Z,11.99
2018-11-10T21:52:47.233Z,11.99
2018-11-10T21:55:14.692Z,12.04
2018-11-10T21:57:42.180Z,12.08
2018-11-10T22:00:09.662Z,12.13
2018-11-10T22:02:37.156Z,12.14
2018-11-10T22:05:04.959Z,12.13
2018-11-10T22:07:32.370Z,12.15
2018-11-10T22:10:00.000Z,12.16
2018-11-10T22:12:27.324Z,12.14
2018-11-10T22:14:54.757Z,12.07
2018-11-10T22:17:22.193Z,12.10
2018-11-10T22:19:49.662Z,12.14
2018-11-10T22:22:17.148Z,12.16
2018-11-10T22:24:44.597Z,12.15
2018-11-10T22:27:12.031Z,12.15
2018-11-10T22:29:39.521Z,12.15
2018-11-10T22:32:06.926Z,12.15
2018-11-10T22:34:34.349Z,12.12
2018-11-10T22:37:01.848Z,12.09
2018-11-10T22:39:29.266Z,12.04
2018-11-10T22:41:56.713Z,11.92
2018-11-10T22:44:24.175Z,11.89
2018-11-10T22:46:51.635Z,11.86
2018-11-10T22:49:19.072Z,11.88
2018-11-10T22:51:46.524Z,11.93
2018-11-10T22:54:14.026Z,11.91
2018-11-10T22:56:41.550Z,11.90
2018-11-10T22:59:08.997Z,11.91
2018-11-10T23:01:36.411Z,11.90
2018-11-10T23:04:03.871Z,11.91
2018-11-10T23:06:31.549Z,11.97
2018-11-10T23:08:58.980Z,11.97
2018-11-10T23:11:26.468Z,11.87
2018-11-10T23:13:53.971Z,11.86
2018-11-10T23:16:21.501Z,11.82
2018-11-10T23:18:48.952Z,11.81
2018-11-10T23:21:16.501Z,11.80
2018-11-10T23:23:43.987Z,11.87
2018-11-10T23:26:11.485Z,11.87
2018-11-10T23:28:38.928Z,11.92
2018-11-10T23:31:06.431Z,11.96
2018-11-10T23:33:33.866Z,11.90
2018-11-10T23:36:01.286Z,11.94
2018-11-10T23:38:29.348Z,11.95
2018-11-10T23:40:57.746Z,12.01
2018-11-10T23:43:25.201Z,12.03
2018-11-10T23:45:52.611Z,12.02
2018-11-10T23:48:20.176Z,12.02
2018-11-10T23:50:47.647Z,12.05
2018-11-10T23:53:15.123Z,12.08
2018-11-10T23:55:43.392Z,12.10
2018-11-10T23:58:10.836Z,12.04
